Terminal Aerodrome Forecast
Issued by NWS

Home | Current Version | Previous Version | Text Only | Print | Product List | Glossary On
Versions: 1 2 3 4 5 6 7 8 9 10 11 12
339
FTUS46 KHNX 260522
TAFFAT
TAF
KFAT 260522Z 2606/2706 18004KT P6SM BKN200
     FM260900 VRB02KT P6SM OVC100
     FM261200 34003KT P6SM SCT100 BKN200=

USA.gov is the U.S. government's official web portal to all federal, state and local government web resources and services.